sensor_id;sensor_type;location;lat;lon;timestamp;temperature;humidity
12164;DHT22;6145;50.192;10.064;2023-04-08T05:35:45;4.90;84.30
12164;DHT22;6145;50.192;10.064;2023-04-08T05:38:33;4.90;84.30
12164;DHT22;6145;50.192;10.064;2023-04-08T05:41:05;4.90;84.30
12164;DHT22;6145;50.192;10.064;2023-04-08T05:43:57;4.90;84.30
12164;DHT22;6145;50.192;10.064;2023-04-08T05:47:24;5.00;84.70
12164;DHT22;6145;50.192;10.064;2023-04-08T05:50:23;5.00;85.00
12164;DHT22;6145;50.192;10.064;2023-04-08T06:14:38;5.10;86.90
12164;DHT22;6145;50.192;10.064;2023-04-08T06:17:05;5.00;87.30
12164;DHT22;6145;50.192;10.064;2023-04-08T06:19:32;5.00;87.60
12164;DHT22;6145;50.192;10.064;2023-04-08T06:22:05;5.20;87.80
12164;DHT22;6145;50.192;10.064;2023-04-08T06:24:31;5.10;87.90
12164;DHT22;6145;50.192;10.064;2023-04-08T06:26:58;5.20;88.10
12164;DHT22;6145;50.192;10.064;2023-04-08T06:29:25;5.20;88.30
12164;DHT22;6145;50.192;10.064;2023-04-08T06:31:55;5.30;88.50
12164;DHT22;6145;50.192;10.064;2023-04-08T06:34:22;5.30;88.60
12164;DHT22;6145;50.192;10.064;2023-04-08T06:36:49;5.40;88.70
12164;DHT22;6145;50.192;10.064;2023-04-08T06:39:16;5.40;89.00
12164;DHT22;6145;50.192;10.064;2023-04-08T06:41:43;5.50;89.00
12164;DHT22;6145;50.192;10.064;2023-04-08T06:44:10;5.60;88.80
12164;DHT22;6145;50.192;10.064;2023-04-08T06:46:40;5.60;88.80
12164;DHT22;6145;50.192;10.064;2023-04-08T06:49:09;5.70;88.70
12164;DHT22;6145;50.192;10.064;2023-04-08T06:51:38;5.70;88.50
12164;DHT22;6145;50.192;10.064;2023-04-08T06:54:08;5.80;88.50
12164;DHT22;6145;50.192;10.064;2023-04-08T06:56:35;5.90;88.60
12164;DHT22;6145;50.192;10.064;2023-04-08T06:59:02;6.60;89.10
12164;DHT22;6145;50.192;10.064;2023-04-08T07:01:30;5.90;88.40
12164;DHT22;6145;50.192;10.064;2023-04-08T07:03:57;6.00;88.40
12164;DHT22;6145;50.192;10.064;2023-04-08T07:06:30;6.10;88.40
12164;DHT22;6145;50.192;10.064;2023-04-08T07:08:57;6.10;88.20
12164;DHT22;6145;50.192;10.064;2023-04-08T07:11:24;6.10;88.40
12164;DHT22;6145;50.192;10.064;2023-04-08T07:13:51;7.20;89.20
12164;DHT22;6145;50.192;10.064;2023-04-08T07:16:18;6.30;88.00
12164;DHT22;6145;50.192;10.064;2023-04-08T07:18:48;7.30;88.90
12164;DHT22;6145;50.192;10.064;2023-04-08T07:21:21;6.40;87.80
12164;DHT22;6145;50.192;10.064;2023-04-08T07:23:51;6.40;87.40
12164;DHT22;6145;50.192;10.064;2023-04-08T07:26:18;6.50;87.30
12164;DHT22;6145;50.192;10.064;2023-04-08T07:28:51;6.60;87.30
12164;DHT22;6145;50.192;10.064;2023-04-08T07:31:19;6.60;87.50
12164;DHT22;6145;50.192;10.064;2023-04-08T07:33:47;6.70;87.10
12164;DHT22;6145;50.192;10.064;2023-04-08T08:21:28;7.50;84.60
12164;DHT22;6145;50.192;10.064;2023-04-08T08:23:55;7.50;84.50
12164;DHT22;6145;50.192;10.064;2023-04-08T08:26:24;7.60;84.40
12164;DHT22;6145;50.192;10.064;2023-04-08T08:28:50;7.60;84.40
12164;DHT22;6145;50.192;10.064;2023-04-08T08:31:17;7.70;84.10
12164;DHT22;6145;50.192;10.064;2023-04-08T08:33:44;7.70;83.60
12164;DHT22;6145;50.192;10.064;2023-04-08T08:36:23;7.60;83.40
12164;DHT22;6145;50.192;10.064;2023-04-08T08:38:53;7.90;83.40
12164;DHT22;6145;50.192;10.064;2023-04-08T08:41:22;7.80;83.10
12164;DHT22;6145;50.192;10.064;2023-04-08T08:43:52;7.90;83.20
12164;DHT22;6145;50.192;10.064;2023-04-08T08:46:19;7.20;82.10
12164;DHT22;6145;50.192;10.064;2023-04-08T08:48:47;7.90;82.80
12164;DHT22;6145;50.192;10.064;2023-04-08T08:51:17;7.90;82.70
12164;DHT22;6145;50.192;10.064;2023-04-08T08:53:44;8.10;82.80
12164;DHT22;6145;50.192;10.064;2023-04-08T08:56:12;8.10;82.50
12164;DHT22;6145;50.192;10.064;2023-04-08T08:58:39;8.20;82.60
12164;DHT22;6145;50.192;10.064;2023-04-08T09:01:34;8.10;82.50
12164;DHT22;6145;50.192;10.064;2023-04-08T09:04:15;8.20;82.60
12164;DHT22;6145;50.192;10.064;2023-04-08T09:06:44;8.20;82.60
12164;DHT22;6145;50.192;10.064;2023-04-08T09:09:12;8.30;82.80
12164;DHT22;6145;50.192;10.064;2023-04-08T09:11:41;8.40;83.00
12164;DHT22;6145;50.192;10.064;2023-04-08T09:14:18;8.50;83.00
12164;DHT22;6145;50.192;10.064;2023-04-08T09:16:45;8.60;82.40
12164;DHT22;6145;50.192;10.064;2023-04-08T09:19:12;8.70;82.20
12164;DHT22;6145;50.192;10.064;2023-04-08T09:21:39;8.70;82.30
12164;DHT22;6145;50.192;10.064;2023-04-08T09:24:07;8.80;82.10
12164;DHT22;6145;50.192;10.064;2023-04-08T09:26:35;8.90;82.20
12164;DHT22;6145;50.192;10.064;2023-04-08T09:29:06;8.90;82.00
12164;DHT22;6145;50.192;10.064;2023-04-08T09:31:34;9.10;82.50
12164;DHT22;6145;50.192;10.064;2023-04-08T09:34:09;9.30;82.30
12164;DHT22;6145;50.192;10.064;2023-04-08T09:36:36;9.70;81.80
12164;DHT22;6145;50.192;10.064;2023-04-08T09:39:04;9.20;81.50
12164;DHT22;6145;50.192;10.064;2023-04-08T09:41:33;9.30;81.80
12164;DHT22;6145;50.192;10.064;2023-04-08T09:44:04;9.40;81.70
12164;DHT22;6145;50.192;10.064;2023-04-08T09:46:35;9.50;81.50
12164;DHT22;6145;50.192;10.064;2023-04-08T09:49:05;9.50;81.60
12164;DHT22;6145;50.192;10.064;2023-04-08T09:51:42;10.30;81.90
12164;DHT22;6145;50.192;10.064;2023-04-08T09:54:13;9.80;82.40
12164;DHT22;6145;50.192;10.064;2023-04-08T09:56:46;9.90;82.90
12164;DHT22;6145;50.192;10.064;2023-04-08T09:59:17;10.00;79.80
12164;DHT22;6145;50.192;10.064;2023-04-08T10:01:51;10.10;78.90
12164;DHT22;6145;50.192;10.064;2023-04-08T10:04:20;10.20;79.60
12164;DHT22;6145;50.192;10.064;2023-04-08T10:06:52;10.30;79.90
12164;DHT22;6145;50.192;10.064;2023-04-08T10:09:20;10.50;80.60
12164;DHT22;6145;50.192;10.064;2023-04-08T10:11:47;10.70;80.30
12164;DHT22;6145;50.192;10.064;2023-04-08T10:14:16;10.80;80.10
12164;DHT22;6145;50.192;10.064;2023-04-08T10:16:45;11.00;80.00
12164;DHT22;6145;50.192;10.064;2023-04-08T10:19:37;11.10;79.30
12164;DHT22;6145;50.192;10.064;2023-04-08T10:25:27;11.20;78.20
12164;DHT22;6145;50.192;10.064;2023-04-08T10:27:54;11.30;77.30
12164;DHT22;6145;50.192;10.064;2023-04-08T10:30:40;11.20;75.60
12164;DHT22;6145;50.192;10.064;2023-04-08T10:33:11;11.20;75.00
12164;DHT22;6145;50.192;10.064;2023-04-08T10:35:41;11.10;75.30
12164;DHT22;6145;50.192;10.064;2023-04-08T10:38:11;11.10;75.60
12164;DHT22;6145;50.192;10.064;2023-04-08T10:40:39;11.10;76.30
12164;DHT22;6145;50.192;10.064;2023-04-08T10:43:07;11.20;76.90
12164;DHT22;6145;50.192;10.064;2023-04-08T10:45:34;11.20;75.50
12164;DHT22;6145;50.192;10.064;2023-04-08T10:48:13;11.20;75.40
12164;DHT22;6145;50.192;10.064;2023-04-08T10:50:41;11.20;75.80
12164;DHT22;6145;50.192;10.064;2023-04-08T10:53:07;11.20;75.80
12164;DHT22;6145;50.192;10.064;2023-04-08T10:55:35;11.20;75.80
12164;DHT22;6145;50.192;10.064;2023-04-08T10:58:06;11.20;75.90
12164;DHT22;6145;50.192;10.064;2023-04-08T11:00:34;11.20;75.60
12164;DHT22;6145;50.192;10.064;2023-04-08T11:03:02;11.20;75.20
12164;DHT22;6145;50.192;10.064;2023-04-08T11:05:34;11.30;75.90
12164;DHT22;6145;50.192;10.064;2023-04-08T11:08:01;11.20;75.60
12164;DHT22;6145;50.192;10.064;2023-04-08T11:10:28;11.40;76.10
12164;DHT22;6145;50.192;10.064;2023-04-08T11:12:56;11.40;76.10
12164;DHT22;6145;50.192;10.064;2023-04-08T11:15:24;11.50;75.80
12164;DHT22;6145;50.192;10.064;2023-04-08T11:17:51;11.40;75.30
12164;DHT22;6145;50.192;10.064;2023-04-08T11:20:19;11.40;74.30
12164;DHT22;6145;50.192;10.064;2023-04-08T11:22:49;11.70;75.20
12164;DHT22;6145;50.192;10.064;2023-04-08T11:25:16;11.40;75.40
12164;DHT22;6145;50.192;10.064;2023-04-08T11:27:43;11.40;75.90
12164;DHT22;6145;50.192;10.064;2023-04-08T11:30:11;11.40;75.80
12164;DHT22;6145;50.192;10.064;2023-04-08T11:32:38;11.50;76.10
12164;DHT22;6145;50.192;10.064;2023-04-08T11:35:06;11.50;76.10
12164;DHT22;6145;50.192;10.064;2023-04-08T11:37:37;11.50;76.40
12164;DHT22;6145;50.192;10.064;2023-04-08T11:40:10;11.60;76.20
12164;DHT22;6145;50.192;10.064;2023-04-08T11:42:38;11.70;75.70
12164;DHT22;6145;50.192;10.064;2023-04-08T11:45:12;12.00;76.50
12164;DHT22;6145;50.192;10.064;2023-04-08T11:47:39;11.80;76.90
12164;DHT22;6145;50.192;10.064;2023-04-08T11:50:07;11.80;76.90
12164;DHT22;6145;50.192;10.064;2023-04-08T11:52:44;11.90;76.20
12164;DHT22;6145;50.192;10.064;2023-04-08T11:55:22;11.90;76.90
12164;DHT22;6145;50.192;10.064;2023-04-08T11:57:49;12.10;76.60
12164;DHT22;6145;50.192;10.064;2023-04-08T12:00:17;12.10;75.40
12164;DHT22;6145;50.192;10.064;2023-04-08T12:02:44;12.20;76.20
12164;DHT22;6145;50.192;10.064;2023-04-08T12:05:16;12.60;76.50
12164;DHT22;6145;50.192;10.064;2023-04-08T12:07:43;12.40;76.00
12164;DHT22;6145;50.192;10.064;2023-04-08T12:10:16;12.40;75.60
12164;DHT22;6145;50.192;10.064;2023-04-08T12:12:43;12.50;75.70
12164;DHT22;6145;50.192;10.064;2023-04-08T12:15:22;13.10;74.80
12164;DHT22;6145;50.192;10.064;2023-04-08T12:17:49;12.60;74.90
12164;DHT22;6145;50.192;10.064;2023-04-08T12:20:16;12.60;75.50
12164;DHT22;6145;50.192;10.064;2023-04-08T12:22:43;12.70;74.80
12164;DHT22;6145;50.192;10.064;2023-04-08T12:25:12;12.70;73.20
12164;DHT22;6145;50.192;10.064;2023-04-08T12:27:40;12.80;72.10
12164;DHT22;6145;50.192;10.064;2023-04-08T12:30:08;12.70;73.10
12164;DHT22;6145;50.192;10.064;2023-04-08T12:32:35;12.70;72.70
12164;DHT22;6145;50.192;10.064;2023-04-08T12:35:03;12.60;71.80
12164;DHT22;6145;50.192;10.064;2023-04-08T12:37:30;12.50;72.30
12164;DHT22;6145;50.192;10.064;2023-04-08T12:39:58;12.50;72.50
12164;DHT22;6145;50.192;10.064;2023-04-08T12:42:25;12.60;72.90
12164;DHT22;6145;50.192;10.064;2023-04-08T12:44:53;12.60;72.80
12164;DHT22;6145;50.192;10.064;2023-04-08T12:47:20;12.60;72.40
12164;DHT22;6145;50.192;10.064;2023-04-08T12:49:47;12.60;72.80
12164;DHT22;6145;50.192;10.064;2023-04-08T12:52:14;12.60;72.90
12164;DHT22;6145;50.192;10.064;2023-04-08T12:54:41;12.70;71.40
12164;DHT22;6145;50.192;10.064;2023-04-08T12:57:08;12.70;72.20
12164;DHT22;6145;50.192;10.064;2023-04-08T12:59:35;12.70;71.10
12164;DHT22;6145;50.192;10.064;2023-04-08T13:02:03;12.70;72.00
12164;DHT22;6145;50.192;10.064;2023-04-08T13:04:31;12.70;71.70
12164;DHT22;6145;50.192;10.064;2023-04-08T13:07:01;12.70;71.80
12164;DHT22;6145;50.192;10.064;2023-04-08T13:09:28;12.80;71.80
12164;DHT22;6145;50.192;10.064;2023-04-08T13:11:55;12.70;71.20
12164;DHT22;6145;50.192;10.064;2023-04-08T13:14:24;12.70;70.70
12164;DHT22;6145;50.192;10.064;2023-04-08T13:16:51;12.70;70.50
12164;DHT22;6145;50.192;10.064;2023-04-08T13:19:21;12.70;70.90
12164;DHT22;6145;50.192;10.064;2023-04-08T13:21:48;12.50;70.20
12164;DHT22;6145;50.192;10.064;2023-04-08T13:24:14;12.70;71.20
12164;DHT22;6145;50.192;10.064;2023-04-08T13:26:41;12.60;70.50
12164;DHT22;6145;50.192;10.064;2023-04-08T13:29:08;12.50;70.30
12164;DHT22;6145;50.192;10.064;2023-04-08T13:31:35;12.60;70.90
12164;DHT22;6145;50.192;10.064;2023-04-08T13:34:02;12.60;71.00
12164;DHT22;6145;50.192;10.064;2023-04-08T13:36:30;12.70;70.30
12164;DHT22;6145;50.192;10.064;2023-04-08T13:38:57;12.60;70.10
12164;DHT22;6145;50.192;10.064;2023-04-08T13:41:26;12.70;70.70
12164;DHT22;6145;50.192;10.064;2023-04-08T13:43:53;12.60;69.80
12164;DHT22;6145;50.192;10.064;2023-04-08T13:46:21;12.50;68.70
12164;DHT22;6145;50.192;10.064;2023-04-08T13:48:47;13.10;69.90
12164;DHT22;6145;50.192;10.064;2023-04-08T13:51:14;12.30;68.50
12164;DHT22;6145;50.192;10.064;2023-04-08T13:53:42;12.20;68.50
12164;DHT22;6145;50.192;10.064;2023-04-08T13:56:09;12.10;68.80
12164;DHT22;6145;50.192;10.064;2023-04-08T13:58:36;12.10;69.90
12164;DHT22;6145;50.192;10.064;2023-04-08T14:01:03;12.10;70.00
12164;DHT22;6145;50.192;10.064;2023-04-08T14:03:30;13.60;71.50
12164;DHT22;6145;50.192;10.064;2023-04-08T14:05:57;12.20;69.10
12164;DHT22;6145;50.192;10.064;2023-04-08T14:08:24;12.30;68.80
12164;DHT22;6145;50.192;10.064;2023-04-08T14:10:54;12.20;69.20
12164;DHT22;6145;50.192;10.064;2023-04-08T14:13:24;12.80;68.60
12164;DHT22;6145;50.192;10.064;2023-04-08T14:16:13;12.10;68.60
12164;DHT22;6145;50.192;10.064;2023-04-08T14:18:41;12.00;67.90
12164;DHT22;6145;50.192;10.064;2023-04-08T14:21:08;12.00;68.30
12164;DHT22;6145;50.192;10.064;2023-04-08T14:23:35;12.00;68.40
12164;DHT22;6145;50.192;10.064;2023-04-08T14:26:03;11.90;67.30
12164;DHT22;6145;50.192;10.064;2023-04-08T14:28:30;11.80;67.10
12164;DHT22;6145;50.192;10.064;2023-04-08T14:30:57;11.80;68.40
12164;DHT22;6145;50.192;10.064;2023-04-08T14:33:24;11.90;68.70
12164;DHT22;6145;50.192;10.064;2023-04-08T14:35:51;11.90;68.70
12164;DHT22;6145;50.192;10.064;2023-04-08T14:38:18;11.90;67.30
12164;DHT22;6145;50.192;10.064;2023-04-08T14:40:45;12.00;68.30
12164;DHT22;6145;50.192;10.064;2023-04-08T14:43:14;12.00;68.30
12164;DHT22;6145;50.192;10.064;2023-04-08T14:45:40;12.00;67.80
12164;DHT22;6145;50.192;10.064;2023-04-08T14:48:09;12.00;68.60
12164;DHT22;6145;50.192;10.064;2023-04-08T14:50:36;11.90;68.50
12164;DHT22;6145;50.192;10.064;2023-04-08T14:53:03;11.90;68.20
12164;DHT22;6145;50.192;10.064;2023-04-08T14:55:30;11.90;68.00
12164;DHT22;6145;50.192;10.064;2023-04-08T14:57:57;11.80;68.10
12164;DHT22;6145;50.192;10.064;2023-04-08T15:00:25;11.20;66.40
12164;DHT22;6145;50.192;10.064;2023-04-08T15:02:57;11.90;66.60
12164;DHT22;6145;50.192;10.064;2023-04-08T15:05:24;11.80;67.00
12164;DHT22;6145;50.192;10.064;2023-04-08T15:07:51;12.10;66.50
12164;DHT22;6145;50.192;10.064;2023-04-08T15:10:19;11.70;65.80
12164;DHT22;6145;50.192;10.064;2023-04-08T15:12:53;11.70;66.00
12164;DHT22;6145;50.192;10.064;2023-04-08T15:15:20;11.60;66.20
12164;DHT22;6145;50.192;10.064;2023-04-08T15:17:48;11.50;66.80
12164;DHT22;6145;50.192;10.064;2023-04-08T15:20:19;11.50;67.00
12164;DHT22;6145;50.192;10.064;2023-04-08T15:22:46;12.40;67.70
12164;DHT22;6145;50.192;10.064;2023-04-08T15:25:12;11.50;66.80
12164;DHT22;6145;50.192;10.064;2023-04-08T15:27:40;11.40;66.00
12164;DHT22;6145;50.192;10.064;2023-04-08T15:30:07;11.30;65.50
12164;DHT22;6145;50.192;10.064;2023-04-08T15:32:34;11.30;66.20
12164;DHT22;6145;50.192;10.064;2023-04-08T15:35:03;11.20;66.20
12164;DHT22;6145;50.192;10.064;2023-04-08T15:37:31;11.20;66.40
12164;DHT22;6145;50.192;10.064;2023-04-08T15:39:58;11.20;65.90
12164;DHT22;6145;50.192;10.064;2023-04-08T15:42:25;11.10;66.90
12164;DHT22;6145;50.192;10.064;2023-04-08T15:44:54;12.00;67.70
12164;DHT22;6145;50.192;10.064;2023-04-08T15:47:20;11.00;67.00
12164;DHT22;6145;50.192;10.064;2023-04-08T15:49:47;11.00;67.00
12164;DHT22;6145;50.192;10.064;2023-04-08T15:52:18;11.10;67.70
12164;DHT22;6145;50.192;10.064;2023-04-08T15:54:45;11.10;67.50
12164;DHT22;6145;50.192;10.064;2023-04-08T15:57:12;11.10;67.60
12164;DHT22;6145;50.192;10.064;2023-04-08T15:59:39;11.20;67.90
12164;DHT22;6145;50.192;10.064;2023-04-08T16:02:06;11.20;67.40
12164;DHT22;6145;50.192;10.064;2023-04-08T16:04:33;11.30;68.00
12164;DHT22;6145;50.192;10.064;2023-04-08T16:07:00;11.20;68.10
12164;DHT22;6145;50.192;10.064;2023-04-08T16:09:28;11.20;67.50
12164;DHT22;6145;50.192;10.064;2023-04-08T16:11:55;11.20;68.20
12164;DHT22;6145;50.192;10.064;2023-04-08T16:14:22;11.30;67.50
12164;DHT22;6145;50.192;10.064;2023-04-08T16:16:49;11.00;67.30
12164;DHT22;6145;50.192;10.064;2023-04-08T16:19:20;11.80;68.50
12164;DHT22;6145;50.192;10.064;2023-04-08T16:21:47;11.00;68.60
12164;DHT22;6145;50.192;10.064;2023-04-08T16:24:13;11.00;68.90
12164;DHT22;6145;50.192;10.064;2023-04-08T16:26:42;11.00;68.70
12164;DHT22;6145;50.192;10.064;2023-04-08T16:29:08;11.10;69.10
12164;DHT22;6145;50.192;10.064;2023-04-08T16:31:35;11.10;68.80
12164;DHT22;6145;50.192;10.064;2023-04-08T16:34:02;11.60;69.30
12164;DHT22;6145;50.192;10.064;2023-04-08T16:36:29;11.10;69.30
12164;DHT22;6145;50.192;10.064;2023-04-08T16:38:56;11.10;69.00
12164;DHT22;6145;50.192;10.064;2023-04-08T16:41:23;11.10;69.20
12164;DHT22;6145;50.192;10.064;2023-04-08T16:43:51;11.10;69.50
12164;DHT22;6145;50.192;10.064;2023-04-08T16:46:18;11.20;69.60
12164;DHT22;6145;50.192;10.064;2023-04-08T16:48:47;11.10;69.40
12164;DHT22;6145;50.192;10.064;2023-04-08T16:51:14;11.00;69.20
12164;DHT22;6145;50.192;10.064;2023-04-08T16:53:42;11.00;69.30
12164;DHT22;6145;50.192;10.064;2023-04-08T16:56:12;11.00;69.30
12164;DHT22;6145;50.192;10.064;2023-04-08T16:58:40;11.00;69.80
12164;DHT22;6145;50.192;10.064;2023-04-08T17:01:09;10.90;69.90
12164;DHT22;6145;50.192;10.064;2023-04-08T17:03:36;10.90;69.90
12164;DHT22;6145;50.192;10.064;2023-04-08T17:06:07;10.90;69.80
12164;DHT22;6145;50.192;10.064;2023-04-08T17:08:35;10.90;69.90
12164;DHT22;6145;50.192;10.064;2023-04-08T17:11:06;10.90;69.40
12164;DHT22;6145;50.192;10.064;2023-04-08T17:13:34;10.80;69.60
12164;DHT22;6145;50.192;10.064;2023-04-08T17:16:01;10.80;69.60
12164;DHT22;6145;50.192;10.064;2023-04-08T17:18:30;10.80;69.70
12164;DHT22;6145;50.192;10.064;2023-04-08T17:20:56;10.80;70.10
12164;DHT22;6145;50.192;10.064;2023-04-08T17:23:23;10.70;70.10
12164;DHT22;6145;50.192;10.064;2023-04-08T17:25:50;10.70;69.80
12164;DHT22;6145;50.192;10.064;2023-04-08T17:28:18;10.70;70.10
12164;DHT22;6145;50.192;10.064;2023-04-08T17:30:45;10.60;70.30
12164;DHT22;6145;50.192;10.064;2023-04-08T17:33:12;10.60;70.60
12164;DHT22;6145;50.192;10.064;2023-04-08T17:35:43;10.60;70.60
12164;DHT22;6145;50.192;10.064;2023-04-08T17:38:10;10.60;70.40
12164;DHT22;6145;50.192;10.064;2023-04-08T17:40:38;10.60;70.70
12164;DHT22;6145;50.192;10.064;2023-04-08T17:43:04;10.60;70.70
12164;DHT22;6145;50.192;10.064;2023-04-08T17:45:33;10.60;70.90
12164;DHT22;6145;50.192;10.064;2023-04-08T17:48:00;11.70;72.00
12164;DHT22;6145;50.192;10.064;2023-04-08T17:50:29;10.60;71.00
12164;DHT22;6145;50.192;10.064;2023-04-08T17:52:57;10.50;70.80
12164;DHT22;6145;50.192;10.064;2023-04-08T17:55:25;10.50;70.90
12164;DHT22;6145;50.192;10.064;2023-04-08T17:57:52;10.50;71.20
12164;DHT22;6145;50.192;10.064;2023-04-08T18:00:24;10.50;71.20
12164;DHT22;6145;50.192;10.064;2023-04-08T18:02:51;10.50;71.50
12164;DHT22;6145;50.192;10.064;2023-04-08T18:05:18;10.50;71.50
12164;DHT22;6145;50.192;10.064;2023-04-08T18:07:46;10.40;71.40
12164;DHT22;6145;50.192;10.064;2023-04-08T18:10:14;10.40;71.70
12164;DHT22;6145;50.192;10.064;2023-04-08T18:12:48;11.10;72.40
12164;DHT22;6145;50.192;10.064;2023-04-08T18:15:24;10.40;71.60
12164;DHT22;6145;50.192;10.064;2023-04-08T18:18:03;10.40;71.70
12164;DHT22;6145;50.192;10.064;2023-04-08T18:20:34;10.30;71.80
12164;DHT22;6145;50.192;10.064;2023-04-08T18:23:02;10.30;71.90
12164;DHT22;6145;50.192;10.064;2023-04-08T18:25:31;10.30;71.80
12164;DHT22;6145;50.192;10.064;2023-04-08T18:27:59;10.20;71.70
12164;DHT22;6145;50.192;10.064;2023-04-08T18:30:30;10.20;71.60
12164;DHT22;6145;50.192;10.064;2023-04-08T18:32:57;10.20;72.00
12164;DHT22;6145;50.192;10.064;2023-04-08T18:35:26;10.30;72.10
12164;DHT22;6145;50.192;10.064;2023-04-08T18:37:53;10.10;72.20
12164;DHT22;6145;50.192;10.064;2023-04-08T18:40:21;10.10;72.30
12164;DHT22;6145;50.192;10.064;2023-04-08T18:42:50;10.10;72.50
12164;DHT22;6145;50.192;10.064;2023-04-08T18:45:18;10.10;72.60
12164;DHT22;6145;50.192;10.064;2023-04-08T18:47:45;10.10;72.70
12164;DHT22;6145;50.192;10.064;2023-04-08T18:50:12;10.10;72.90
12164;DHT22;6145;50.192;10.064;2023-04-08T18:52:39;10.00;72.80
12164;DHT22;6145;50.192;10.064;2023-04-08T18:55:06;10.10;72.90
12164;DHT22;6145;50.192;10.064;2023-04-08T18:57:35;10.00;72.60
12164;DHT22;6145;50.192;10.064;2023-04-08T19:00:08;10.00;72.70
12164;DHT22;6145;50.192;10.064;2023-04-08T19:02:35;10.00;73.10
12164;DHT22;6145;50.192;10.064;2023-04-08T19:05:02;10.00;73.10
12164;DHT22;6145;50.192;10.064;2023-04-08T19:07:29;9.90;74.10
12164;DHT22;6145;50.192;10.064;2023-04-08T19:09:56;9.90;74.30
12164;DHT22;6145;50.192;10.064;2023-04-08T19:12:23;11.00;74.50
12164;DHT22;6145;50.192;10.064;2023-04-08T19:14:50;9.80;74.30
12164;DHT22;6145;50.192;10.064;2023-04-08T19:17:19;9.80;74.30
12164;DHT22;6145;50.192;10.064;2023-04-08T19:19:46;9.80;74.50
12164;DHT22;6145;50.192;10.064;2023-04-08T19:22:13;9.80;74.60
12164;DHT22;6145;50.192;10.064;2023-04-08T19:24:41;9.90;74.70
12164;DHT22;6145;50.192;10.064;2023-04-08T19:27:08;9.80;74.50
12164;DHT22;6145;50.192;10.064;2023-04-08T19:29:35;9.20;74.00
12164;DHT22;6145;50.192;10.064;2023-04-08T19:32:02;9.80;74.60
12164;DHT22;6145;50.192;10.064;2023-04-08T19:34:30;9.80;74.60
12164;DHT22;6145;50.192;10.064;2023-04-08T19:36:57;9.70;74.60
12164;DHT22;6145;50.192;10.064;2023-04-08T19:39:24;9.70;74.60
12164;DHT22;6145;50.192;10.064;2023-04-08T19:41:51;9.70;74.80
12164;DHT22;6145;50.192;10.064;2023-04-08T19:44:18;9.70;74.60
12164;DHT22;6145;50.192;10.064;2023-04-08T19:46:45;9.70;74.80
12164;DHT22;6145;50.192;10.064;2023-04-08T19:49:19;9.70;74.90
12164;DHT22;6145;50.192;10.064;2023-04-08T19:51:47;9.60;74.80
12164;DHT22;6145;50.192;10.064;2023-04-08T19:54:14;9.50;74.80
12164;DHT22;6145;50.192;10.064;2023-04-08T19:56:41;9.50;75.10
12164;DHT22;6145;50.192;10.064;2023-04-08T19:59:08;9.60;75.40
12164;DHT22;6145;50.192;10.064;2023-04-08T20:04:53;9.00;75.00
12164;DHT22;6145;50.192;10.064;2023-04-08T20:07:23;9.40;75.30
12164;DHT22;6145;50.192;10.064;2023-04-08T20:09:50;9.40;75.40
12164;DHT22;6145;50.192;10.064;2023-04-08T20:12:17;9.50;75.40
12164;DHT22;6145;50.192;10.064;2023-04-08T20:14:44;9.30;75.30
12164;DHT22;6145;50.192;10.064;2023-04-08T20:17:11;10.10;75.10
12164;DHT22;6145;50.192;10.064;2023-04-08T20:19:39;9.30;75.40
12164;DHT22;6145;50.192;10.064;2023-04-08T20:22:06;9.30;75.50
12164;DHT22;6145;50.192;10.064;2023-04-08T20:24:35;9.30;75.70
12164;DHT22;6145;50.192;10.064;2023-04-08T20:27:04;9.20;75.70
12164;DHT22;6145;50.192;10.064;2023-04-08T20:29:31;9.20;75.80
12164;DHT22;6145;50.192;10.064;2023-04-08T20:31:59;9.20;75.90
12164;DHT22;6145;50.192;10.064;2023-04-08T20:34:26;9.20;76.10
12164;DHT22;6145;50.192;10.064;2023-04-08T20:36:52;9.20;76.10
12164;DHT22;6145;50.192;10.064;2023-04-08T20:39:20;9.20;76.20
12164;DHT22;6145;50.192;10.064;2023-04-08T20:41:55;9.20;76.20
12164;DHT22;6145;50.192;10.064;2023-04-08T20:44:22;9.20;76.20
12164;DHT22;6145;50.192;10.064;2023-04-08T20:46:49;9.40;76.50
12164;DHT22;6145;50.192;10.064;2023-04-08T20:49:16;9.10;76.20
12164;DHT22;6145;50.192;10.064;2023-04-08T20:51:43;9.10;76.30
12164;DHT22;6145;50.192;10.064;2023-04-08T20:54:10;9.20;76.40
12164;DHT22;6145;50.192;10.064;2023-04-08T20:56:37;9.10;76.30
12164;DHT22;6145;50.192;10.064;2023-04-08T20:59:07;9.10;76.40
12164;DHT22;6145;50.192;10.064;2023-04-08T21:01:35;9.10;76.40
12164;DHT22;6145;50.192;10.064;2023-04-08T21:04:01;9.10;76.40
12164;DHT22;6145;50.192;10.064;2023-04-08T21:06:29;9.50;76.90
12164;DHT22;6145;50.192;10.064;2023-04-08T21:08:57;9.10;76.50
12164;DHT22;6145;50.192;10.064;2023-04-08T21:11:24;9.10;76.60
12164;DHT22;6145;50.192;10.064;2023-04-08T21:13:52;9.10;76.60
12164;DHT22;6145;50.192;10.064;2023-04-08T21:16:23;9.10;76.60
12164;DHT22;6145;50.192;10.064;2023-04-08T21:18:53;9.80;77.20
12164;DHT22;6145;50.192;10.064;2023-04-08T21:21:22;9.00;76.60
12164;DHT22;6145;50.192;10.064;2023-04-08T21:23:48;9.00;76.70
12164;DHT22;6145;50.192;10.064;2023-04-08T21:26:15;9.00;76.70
12164;DHT22;6145;50.192;10.064;2023-04-08T21:28:42;9.00;76.80
12164;DHT22;6145;50.192;10.064;2023-04-08T21:31:09;9.00;76.80
12164;DHT22;6145;50.192;10.064;2023-04-08T21:33:38;9.00;76.90
12164;DHT22;6145;50.192;10.064;2023-04-08T21:36:05;9.00;76.90
12164;DHT22;6145;50.192;10.064;2023-04-08T21:38:32;8.90;77.60
12164;DHT22;6145;50.192;10.064;2023-04-08T21:40:59;9.40;77.30
12164;DHT22;6145;50.192;10.064;2023-04-08T21:43:26;9.10;77.30
12164;DHT22;6145;50.192;10.064;2023-04-08T21:45:53;8.90;77.10
12164;DHT22;6145;50.192;10.064;2023-04-08T21:48:22;8.90;77.20
12164;DHT22;6145;50.192;10.064;2023-04-08T21:50:50;8.80;77.20
12164;DHT22;6145;50.192;10.064;2023-04-08T21:53:17;8.80;77.20
12164;DHT22;6145;50.192;10.064;2023-04-08T21:55:45;8.70;77.20
12164;DHT22;6145;50.192;10.064;2023-04-08T21:58:12;8.70;77.40
12164;DHT22;6145;50.192;10.064;2023-04-08T22:00:41;8.80;77.60
12164;DHT22;6145;50.192;10.064;2023-04-08T22:03:09;9.90;78.70
12164;DHT22;6145;50.192;10.064;2023-04-08T22:05:36;8.70;77.60
12164;DHT22;6145;50.192;10.064;2023-04-08T22:08:04;8.70;77.70
12164;DHT22;6145;50.192;10.064;2023-04-08T22:24:11;8.70;78.10
12164;DHT22;6145;50.192;10.064;2023-04-08T22:26:38;8.60;78.10
12164;DHT22;6145;50.192;10.064;2023-04-08T22:29:05;8.80;78.30
12164;DHT22;6145;50.192;10.064;2023-04-08T22:31:32;8.60;78.20
12164;DHT22;6145;50.192;10.064;2023-04-08T22:33:58;8.70;78.20
12164;DHT22;6145;50.192;10.064;2023-04-08T22:36:27;8.60;78.10
12164;DHT22;6145;50.192;10.064;2023-04-08T22:38:55;8.70;78.10
12164;DHT22;6145;50.192;10.064;2023-04-08T22:41:26;8.70;78.10
12164;DHT22;6145;50.192;10.064;2023-04-08T22:43:53;8.70;78.40
12164;DHT22;6145;50.192;10.064;2023-04-08T22:46:20;8.70;78.10
12164;DHT22;6145;50.192;10.064;2023-04-08T22:48:46;8.60;78.10